sensor_id;sensor_type;location;lat;lon;timestamp;noise_LAeq;noise_LA_min;noise_LA_max;noise_LA01;noise_LA95
70454;Laerm;57915;47.174;14.680;2023-05-07T00:00:20;53.27;43.90;66.74;;
70454;Laerm;57915;47.174;14.680;2023-05-07T00:01:20;61.32;45.73;71.08;;
70454;Laerm;57915;47.174;14.680;2023-05-07T00:02:23;46.54;44.16;60.81;;
70454;Laerm;57915;47.174;14.680;2023-05-07T00:03:24;45.82;44.31;47.72;;
70454;Laerm;57915;47.174;14.680;2023-05-07T00:04:26;46.26;44.37;48.44;;
70454;Laerm;57915;47.174;14.680;2023-05-07T00:05:28;46.91;44.04;50.27;;
70454;Laerm;57915;47.174;14.680;2023-05-07T00:06:29;46.48;44.50;49.82;;
70454;Laerm;57915;47.174;14.680;2023-05-07T00:07:30;47.39;44.64;54.96;;
70454;Laerm;57915;47.174;14.680;2023-05-07T00:08:32;47.02;44.21;51.26;;
70454;Laerm;57915;47.174;14.680;2023-05-07T00:09:32;46.18;44.72;47.88;;
70454;Laerm;57915;47.174;14.680;2023-05-07T00:10:34;46.12;44.28;48.84;;
70454;Laerm;57915;47.174;14.680;2023-05-07T00:11:34;55.27;44.99;66.74;;
70454;Laerm;57915;47.174;14.680;2023-05-07T00:12:36;47.56;44.45;57.03;;
70454;Laerm;57915;47.174;14.680;2023-05-07T00:13:36;45.38;43.54;47.43;;
70454;Laerm;57915;47.174;14.680;2023-05-07T00:14:38;59.36;44.58;71.63;;
70454;Laerm;57915;47.174;14.680;2023-05-07T00:15:38;55.34;44.47;67.58;;
70454;Laerm;57915;47.174;14.680;2023-05-07T00:16:40;46.52;44.78;49.53;;
70454;Laerm;57915;47.174;14.680;2023-05-07T00:17:42;46.84;44.74;49.70;;
70454;Laerm;57915;47.174;14.680;2023-05-07T00:18:43;46.72;44.58;50.44;;
70454;Laerm;57915;47.174;14.680;2023-05-07T00:19:44;47.16;45.18;49.90;;
70454;Laerm;57915;47.174;14.680;2023-05-07T00:20:45;46.20;44.38;48.39;;
70454;Laerm;57915;47.174;14.680;2023-05-07T00:21:45;46.07;44.44;48.77;;
70454;Laerm;57915;47.174;14.680;2023-05-07T00:22:47;46.89;44.42;50.21;;
70454;Laerm;57915;47.174;14.680;2023-05-07T00:23:47;46.79;44.48;50.16;;
70454;Laerm;57915;47.174;14.680;2023-05-07T00:24:49;46.29;44.65;48.54;;
70454;Laerm;57915;47.174;14.680;2023-05-07T00:25:50;48.40;44.55;56.69;;
70454;Laerm;57915;47.174;14.680;2023-05-07T00:26:51;49.56;44.85;55.87;;
70454;Laerm;57915;47.174;14.680;2023-05-07T00:27:52;45.74;44.36;47.98;;
70454;Laerm;57915;47.174;14.680;2023-05-07T00:28:54;46.19;44.45;48.28;;
70454;Laerm;57915;47.174;14.680;2023-05-07T00:29:54;46.69;44.91;52.92;;
70454;Laerm;57915;47.174;14.680;2023-05-07T00:30:56;46.79;45.19;51.20;;
70454;Laerm;57915;47.174;14.680;2023-05-07T00:31:56;45.88;44.44;47.80;;
70454;Laerm;57915;47.174;14.680;2023-05-07T00:32:59;47.26;45.03;50.77;;
70454;Laerm;57915;47.174;14.680;2023-05-07T00:34:00;46.63;44.71;49.99;;
70454;Laerm;57915;47.174;14.680;2023-05-07T00:35:01;47.44;44.96;51.43;;
70454;Laerm;57915;47.174;14.680;2023-05-07T00:36:02;62.52;44.83;76.43;;
70454;Laerm;57915;47.174;14.680;2023-05-07T00:37:03;47.32;44.84;49.76;;
70454;Laerm;57915;47.174;14.680;2023-05-07T00:38:04;46.30;44.68;48.64;;
70454;Laerm;57915;47.174;14.680;2023-05-07T00:39:06;62.17;44.84;76.07;;
70454;Laerm;57915;47.174;14.680;2023-05-07T00:40:07;46.51;44.66;50.03;;
70454;Laerm;57915;47.174;14.680;2023-05-07T00:41:08;46.26;44.81;48.66;;
70454;Laerm;57915;47.174;14.680;2023-05-07T00:42:09;45.91;44.65;47.28;;
70454;Laerm;57915;47.174;14.680;2023-05-07T00:43:11;46.34;44.51;48.18;;
70454;Laerm;57915;47.174;14.680;2023-05-07T00:44:12;47.01;45.42;49.17;;
70454;Laerm;57915;47.174;14.680;2023-05-07T00:45:14;58.88;46.31;70.26;;
70454;Laerm;57915;47.174;14.680;2023-05-07T00:46:15;48.70;46.88;51.29;;
70454;Laerm;57915;47.174;14.680;2023-05-07T00:47:16;47.01;45.16;59.60;;
70454;Laerm;57915;47.174;14.680;2023-05-07T00:48:19;49.65;45.52;63.08;;
70454;Laerm;57915;47.174;14.680;2023-05-07T00:49:20;60.82;45.70;73.54;;
70454;Laerm;57915;47.174;14.680;2023-05-07T00:50:21;47.10;45.25;50.80;;
70454;Laerm;57915;47.174;14.680;2023-05-07T00:51:23;47.85;45.66;68.14;;
70454;Laerm;57915;47.174;14.680;2023-05-07T00:52:24;48.57;44.95;59.40;;
70454;Laerm;57915;47.174;14.680;2023-05-07T00:53:26;57.75;46.17;69.88;;
70454;Laerm;57915;47.174;14.680;2023-05-07T00:54:27;48.57;46.12;52.85;;
70454;Laerm;57915;47.174;14.680;2023-05-07T00:55:29;47.97;45.77;55.49;;
70454;Laerm;57915;47.174;14.680;2023-05-07T00:56:29;57.14;45.22;69.22;;
70454;Laerm;57915;47.174;14.680;2023-05-07T00:57:32;48.04;45.27;58.98;;
70454;Laerm;57915;47.174;14.680;2023-05-07T00:58:33;47.17;45.45;55.07;;
70454;Laerm;57915;47.174;14.680;2023-05-07T00:59:35;46.82;45.15;48.51;;
70454;Laerm;57915;47.174;14.680;2023-05-07T01:00:35;56.03;45.34;68.05;;
70454;Laerm;57915;47.174;14.680;2023-05-07T01:01:37;46.89;45.30;48.96;;
70454;Laerm;57915;47.174;14.680;2023-05-07T01:02:38;48.66;45.95;52.94;;
70454;Laerm;57915;47.174;14.680;2023-05-07T01:03:41;50.24;46.72;54.16;;
70454;Laerm;57915;47.174;14.680;2023-05-07T01:04:41;59.93;45.76;73.28;;
70454;Laerm;57915;47.174;14.680;2023-05-07T01:05:43;59.50;46.50;70.04;;
70454;Laerm;57915;47.174;14.680;2023-05-07T01:06:47;46.99;45.57;50.00;;
70454;Laerm;57915;47.174;14.680;2023-05-07T01:07:49;47.15;45.49;50.44;;
70454;Laerm;57915;47.174;14.680;2023-05-07T01:08:51;46.94;45.67;49.44;;
70454;Laerm;57915;47.174;14.680;2023-05-07T01:09:53;46.90;45.67;48.73;;
70454;Laerm;57915;47.174;14.680;2023-05-07T01:10:53;46.93;45.46;51.48;;
70454;Laerm;57915;47.174;14.680;2023-05-07T01:11:56;46.78;45.38;48.89;;
70454;Laerm;57915;47.174;14.680;2023-05-07T01:12:57;46.81;45.57;48.94;;
70454;Laerm;57915;47.174;14.680;2023-05-07T01:13:59;47.06;45.40;48.92;;
70454;Laerm;57915;47.174;14.680;2023-05-07T01:15:00;56.87;45.81;68.46;;
70454;Laerm;57915;47.174;14.680;2023-05-07T01:16:02;46.43;45.27;47.93;;
70454;Laerm;57915;47.174;14.680;2023-05-07T01:17:03;46.80;45.59;48.91;;
70454;Laerm;57915;47.174;14.680;2023-05-07T01:18:04;47.63;46.01;50.19;;
70454;Laerm;57915;47.174;14.680;2023-05-07T01:19:07;48.53;46.78;50.62;;
70454;Laerm;57915;47.174;14.680;2023-05-07T01:20:11;47.58;45.57;52.02;;
70454;Laerm;57915;47.174;14.680;2023-05-07T01:21:11;46.78;45.58;48.70;;
70454;Laerm;57915;47.174;14.680;2023-05-07T01:22:14;50.98;45.97;63.58;;
70454;Laerm;57915;47.174;14.680;2023-05-07T01:23:17;56.92;45.80;68.93;;
70454;Laerm;57915;47.174;14.680;2023-05-07T01:24:19;46.74;45.46;48.20;;
70454;Laerm;57915;47.174;14.680;2023-05-07T01:25:22;46.85;45.50;48.93;;
70454;Laerm;57915;47.174;14.680;2023-05-07T01:26:26;47.06;45.64;49.70;;
70454;Laerm;57915;47.174;14.680;2023-05-07T01:27:26;46.59;45.13;48.89;;
70454;Laerm;57915;47.174;14.680;2023-05-07T01:28:28;46.53;45.53;47.83;;
70454;Laerm;57915;47.174;14.680;2023-05-07T01:29:28;49.42;46.13;56.05;;
70454;Laerm;57915;47.174;14.680;2023-05-07T01:30:30;48.23;46.52;50.01;;
70454;Laerm;57915;47.174;14.680;2023-05-07T01:31:31;47.60;45.85;49.54;;
70454;Laerm;57915;47.174;14.680;2023-05-07T01:32:35;47.23;46.06;48.78;;
70454;Laerm;57915;47.174;14.680;2023-05-07T01:33:37;47.29;45.85;48.57;;
70454;Laerm;57915;47.174;14.680;2023-05-07T01:34:39;46.92;45.55;50.10;;
70454;Laerm;57915;47.174;14.680;2023-05-07T01:35:40;47.65;45.91;49.21;;
70454;Laerm;57915;47.174;14.680;2023-05-07T01:36:42;47.60;46.21;48.89;;
70454;Laerm;57915;47.174;14.680;2023-05-07T01:37:43;47.40;46.02;51.09;;
70454;Laerm;57915;47.174;14.680;2023-05-07T01:38:47;56.74;46.01;69.04;;
70454;Laerm;57915;47.174;14.680;2023-05-07T01:39:48;47.27;45.95;49.12;;
70454;Laerm;57915;47.174;14.680;2023-05-07T01:40:49;47.24;45.72;52.87;;
70454;Laerm;57915;47.174;14.680;2023-05-07T01:41:50;46.73;45.45;52.72;;
70454;Laerm;57915;47.174;14.680;2023-05-07T01:42:52;53.17;45.95;66.57;;
70454;Laerm;57915;47.174;14.680;2023-05-07T01:43:53;56.06;45.86;67.81;;
70454;Laerm;57915;47.174;14.680;2023-05-07T01:44:55;57.72;46.60;70.34;;
70454;Laerm;57915;47.174;14.680;2023-05-07T01:45:56;47.91;45.51;53.77;;
70454;Laerm;57915;47.174;14.680;2023-05-07T01:46:58;47.20;45.78;52.94;;
70454;Laerm;57915;47.174;14.680;2023-05-07T01:48:00;46.73;45.44;50.51;;
70454;Laerm;57915;47.174;14.680;2023-05-07T01:49:02;46.57;45.39;47.95;;
70454;Laerm;57915;47.174;14.680;2023-05-07T01:50:03;46.55;45.18;48.08;;
70454;Laerm;57915;47.174;14.680;2023-05-07T01:51:04;47.35;45.84;49.28;;
70454;Laerm;57915;47.174;14.680;2023-05-07T01:52:06;47.56;46.35;48.80;;
70454;Laerm;57915;47.174;14.680;2023-05-07T01:53:07;49.13;46.81;53.62;;
70454;Laerm;57915;47.174;14.680;2023-05-07T01:54:09;48.36;46.32;52.65;;
70454;Laerm;57915;47.174;14.680;2023-05-07T01:55:11;51.01;46.29;58.27;;
70454;Laerm;57915;47.174;14.680;2023-05-07T01:56:11;49.60;46.33;55.63;;
70454;Laerm;57915;47.174;14.680;2023-05-07T01:57:13;47.35;45.66;49.17;;
70454;Laerm;57915;47.174;14.680;2023-05-07T01:58:13;46.91;45.77;49.73;;
70454;Laerm;57915;47.174;14.680;2023-05-07T01:59:14;47.20;45.88;52.30;;
70454;Laerm;57915;47.174;14.680;2023-05-07T02:00:18;47.01;45.46;52.42;;
70454;Laerm;57915;47.174;14.680;2023-05-07T02:01:20;46.92;45.50;52.79;;
70454;Laerm;57915;47.174;14.680;2023-05-07T02:02:20;47.82;46.17;53.05;;
70454;Laerm;57915;47.174;14.680;2023-05-07T02:03:24;50.09;46.38;55.28;;
70454;Laerm;57915;47.174;14.680;2023-05-07T02:04:25;56.58;45.84;67.67;;
70454;Laerm;57915;47.174;14.680;2023-05-07T02:05:27;48.69;45.87;55.74;;
70454;Laerm;57915;47.174;14.680;2023-05-07T02:06:27;49.53;46.71;54.53;;
70454;Laerm;57915;47.174;14.680;2023-05-07T02:07:29;48.61;46.57;57.03;;
70454;Laerm;57915;47.174;14.680;2023-05-07T02:08:29;48.15;46.32;55.60;;
70454;Laerm;57915;47.174;14.680;2023-05-07T02:09:32;48.14;46.56;55.48;;
70454;Laerm;57915;47.174;14.680;2023-05-07T02:10:33;48.02;46.34;55.77;;
70454;Laerm;57915;47.174;14.680;2023-05-07T02:11:36;47.69;46.37;53.48;;
70454;Laerm;57915;47.174;14.680;2023-05-07T02:12:36;47.47;46.24;51.83;;
70454;Laerm;57915;47.174;14.680;2023-05-07T02:13:38;47.55;45.98;53.13;;
70454;Laerm;57915;47.174;14.680;2023-05-07T02:14:38;48.19;46.47;51.92;;
70454;Laerm;57915;47.174;14.680;2023-05-07T02:15:39;61.07;47.10;72.56;;
70454;Laerm;57915;47.174;14.680;2023-05-07T02:16:40;48.35;47.01;51.98;;
70454;Laerm;57915;47.174;14.680;2023-05-07T02:18:57;48.81;46.91;53.73;;
70454;Laerm;57915;47.174;14.680;2023-05-07T02:19:59;53.68;46.31;65.83;;
70454;Laerm;57915;47.174;14.680;2023-05-07T02:20:59;50.27;46.64;64.19;;
70454;Laerm;57915;47.174;14.680;2023-05-07T02:22:01;49.96;47.22;57.25;;
70454;Laerm;57915;47.174;14.680;2023-05-07T02:23:01;48.70;46.85;53.75;;
70454;Laerm;57915;47.174;14.680;2023-05-07T02:24:03;57.53;47.39;71.64;;
70454;Laerm;57915;47.174;14.680;2023-05-07T02:25:05;49.48;47.26;56.14;;
70454;Laerm;57915;47.174;14.680;2023-05-07T02:26:07;49.86;46.93;59.21;;
70454;Laerm;57915;47.174;14.680;2023-05-07T02:27:11;53.35;47.48;68.80;;
70454;Laerm;57915;47.174;14.680;2023-05-07T02:28:12;48.60;46.98;53.36;;
70454;Laerm;57915;47.174;14.680;2023-05-07T02:29:13;48.59;47.03;58.42;;
70454;Laerm;57915;47.174;14.680;2023-05-07T02:30:14;49.13;47.19;57.81;;
70454;Laerm;57915;47.174;14.680;2023-05-07T02:31:15;49.29;47.38;54.42;;
70454;Laerm;57915;47.174;14.680;2023-05-07T02:32:16;49.35;47.05;56.59;;
70454;Laerm;57915;47.174;14.680;2023-05-07T02:33:17;49.23;47.47;54.20;;
70454;Laerm;57915;47.174;14.680;2023-05-07T02:34:18;49.28;47.50;55.40;;
70454;Laerm;57915;47.174;14.680;2023-05-07T02:35:19;49.39;47.74;53.32;;
70454;Laerm;57915;47.174;14.680;2023-05-07T02:36:20;48.66;47.10;51.88;;
70454;Laerm;57915;47.174;14.680;2023-05-07T02:37:22;49.67;47.35;58.52;;
70454;Laerm;57915;47.174;14.680;2023-05-07T02:38:22;54.66;47.19;70.98;;
70454;Laerm;57915;47.174;14.680;2023-05-07T02:39:24;48.43;46.97;54.03;;
70454;Laerm;57915;47.174;14.680;2023-05-07T02:40:27;49.52;47.04;63.86;;
70454;Laerm;57915;47.174;14.680;2023-05-07T02:41:27;50.24;46.92;62.76;;
70454;Laerm;57915;47.174;14.680;2023-05-07T02:42:29;48.89;46.79;57.02;;
70454;Laerm;57915;47.174;14.680;2023-05-07T02:43:29;48.75;46.61;57.53;;
70454;Laerm;57915;47.174;14.680;2023-05-07T02:44:31;49.30;46.74;62.78;;
70454;Laerm;57915;47.174;14.680;2023-05-07T02:45:31;60.39;46.89;71.69;;
70454;Laerm;57915;47.174;14.680;2023-05-07T02:46:33;51.37;46.74;67.63;;
70454;Laerm;57915;47.174;14.680;2023-05-07T02:47:33;48.62;46.27;56.63;;
70454;Laerm;57915;47.174;14.680;2023-05-07T02:48:35;50.02;46.49;64.17;;
70454;Laerm;57915;47.174;14.680;2023-05-07T02:49:35;55.08;46.73;71.26;;
70454;Laerm;57915;47.174;14.680;2023-05-07T02:50:37;53.14;46.48;64.71;;
70454;Laerm;57915;47.174;14.680;2023-05-07T02:51:37;52.91;46.80;67.81;;
70454;Laerm;57915;47.174;14.680;2023-05-07T02:52:39;54.16;47.05;71.09;;
70454;Laerm;57915;47.174;14.680;2023-05-07T02:53:39;51.83;47.22;64.03;;
70454;Laerm;57915;47.174;14.680;2023-05-07T02:54:41;55.68;47.56;67.09;;
70454;Laerm;57915;47.174;14.680;2023-05-07T02:55:44;54.16;47.51;66.63;;
70454;Laerm;57915;47.174;14.680;2023-05-07T02:56:45;54.54;47.65;71.11;;
70454;Laerm;57915;47.174;14.680;2023-05-07T02:57:46;53.77;48.18;68.32;;
70454;Laerm;57915;47.174;14.680;2023-05-07T02:58:47;51.90;47.93;62.00;;
70454;Laerm;57915;47.174;14.680;2023-05-07T02:59:48;51.54;47.62;63.75;;
70454;Laerm;57915;47.174;14.680;2023-05-07T03:00:49;51.73;47.76;61.72;;
70454;Laerm;57915;47.174;14.680;2023-05-07T03:01:50;53.90;48.09;65.41;;
70454;Laerm;57915;47.174;14.680;2023-05-07T03:02:52;57.38;47.94;67.74;;
70454;Laerm;57915;47.174;14.680;2023-05-07T03:03:52;53.71;48.03;65.52;;
70454;Laerm;57915;47.174;14.680;2023-05-07T03:04:53;54.06;47.62;71.09;;
70454;Laerm;57915;47.174;14.680;2023-05-07T03:05:54;51.40;47.47;65.57;;
70454;Laerm;57915;47.174;14.680;2023-05-07T03:06:55;54.97;47.26;68.59;;
70454;Laerm;57915;47.174;14.680;2023-05-07T03:07:56;49.96;47.18;59.59;;
70454;Laerm;57915;47.174;14.680;2023-05-07T03:08:57;50.52;47.87;61.54;;
70454;Laerm;57915;47.174;14.680;2023-05-07T03:09:58;56.23;47.35;67.74;;
70454;Laerm;57915;47.174;14.680;2023-05-07T03:11:01;53.98;47.53;68.88;;
70454;Laerm;57915;47.174;14.680;2023-05-07T03:12:02;57.14;47.95;67.64;;
70454;Laerm;57915;47.174;14.680;2023-05-07T03:13:03;56.77;47.64;67.41;;
70454;Laerm;57915;47.174;14.680;2023-05-07T03:14:03;58.48;47.75;68.98;;
70454;Laerm;57915;47.174;14.680;2023-05-07T03:15:05;58.35;47.40;74.65;;
70454;Laerm;57915;47.174;14.680;2023-05-07T03:16:06;58.19;47.34;70.65;;
70454;Laerm;57915;47.174;14.680;2023-05-07T03:17:08;58.14;47.32;69.11;;
70454;Laerm;57915;47.174;14.680;2023-05-07T03:18:08;58.62;47.74;69.48;;
70454;Laerm;57915;47.174;14.680;2023-05-07T03:19:10;55.65;47.15;69.24;;
70454;Laerm;57915;47.174;14.680;2023-05-07T03:20:11;55.53;46.91;66.14;;
70454;Laerm;57915;47.174;14.680;2023-05-07T03:21:13;55.30;47.75;64.82;;
70454;Laerm;57915;47.174;14.680;2023-05-07T03:22:13;56.73;47.97;66.82;;
70454;Laerm;57915;47.174;14.680;2023-05-07T03:23:15;55.22;47.36;64.66;;
70454;Laerm;57915;47.174;14.680;2023-05-07T03:24:16;59.28;47.34;71.39;;
70454;Laerm;57915;47.174;14.680;2023-05-07T03:25:17;54.64;46.90;65.21;;
70454;Laerm;57915;47.174;14.680;2023-05-07T03:26:19;53.97;46.99;64.84;;
70454;Laerm;57915;47.174;14.680;2023-05-07T03:27:21;55.08;47.89;65.74;;
70454;Laerm;57915;47.174;14.680;2023-05-07T03:28:21;55.14;47.82;66.12;;
70454;Laerm;57915;47.174;14.680;2023-05-07T03:29:23;54.27;47.02;66.16;;
70454;Laerm;57915;47.174;14.680;2023-05-07T03:30:23;54.06;46.68;66.10;;
70454;Laerm;57915;47.174;14.680;2023-05-07T03:31:25;53.75;46.69;66.94;;
70454;Laerm;57915;47.174;14.680;2023-05-07T03:32:26;54.44;46.79;66.71;;
70454;Laerm;57915;47.174;14.680;2023-05-07T03:33:27;53.97;46.97;66.62;;
70454;Laerm;57915;47.174;14.680;2023-05-07T03:34:27;53.74;47.11;64.78;;
70454;Laerm;57915;47.174;14.680;2023-05-07T03:35:29;49.07;46.75;62.52;;
70454;Laerm;57915;47.174;14.680;2023-05-07T03:36:30;48.56;46.92;55.69;;
70454;Laerm;57915;47.174;14.680;2023-05-07T03:37:31;59.44;46.92;72.12;;
70454;Laerm;57915;47.174;14.680;2023-05-07T03:38:31;48.80;47.26;50.89;;
70454;Laerm;57915;47.174;14.680;2023-05-07T03:39:33;61.56;49.08;70.54;;
70454;Laerm;57915;47.174;14.680;2023-05-07T03:40:33;57.96;48.23;71.22;;
70454;Laerm;57915;47.174;14.680;2023-05-07T03:41:36;56.68;47.60;70.15;;
70454;Laerm;57915;47.174;14.680;2023-05-07T03:42:37;53.66;47.22;67.31;;
70454;Laerm;57915;47.174;14.680;2023-05-07T03:43:38;54.67;47.39;67.38;;
70454;Laerm;57915;47.174;14.680;2023-05-07T03:44:39;48.87;47.38;50.52;;
70454;Laerm;57915;47.174;14.680;2023-05-07T03:45:40;50.45;48.50;52.19;;
70454;Laerm;57915;47.174;14.680;2023-05-07T03:46:41;48.91;47.39;52.43;;
70454;Laerm;57915;47.174;14.680;2023-05-07T03:47:42;47.96;46.77;52.60;;
70454;Laerm;57915;47.174;14.680;2023-05-07T03:48:43;48.39;46.86;53.16;;
70454;Laerm;57915;47.174;14.680;2023-05-07T03:49:44;48.99;47.34;52.09;;
70454;Laerm;57915;47.174;14.680;2023-05-07T03:50:45;54.48;47.29;65.76;;
70454;Laerm;57915;47.174;14.680;2023-05-07T03:51:47;48.33;46.39;56.95;;
70454;Laerm;57915;47.174;14.680;2023-05-07T03:52:50;49.43;46.76;59.09;;
70454;Laerm;57915;47.174;14.680;2023-05-07T03:53:51;52.55;46.72;66.21;;
70454;Laerm;57915;47.174;14.680;2023-05-07T03:54:53;50.51;46.68;63.71;;
70454;Laerm;57915;47.174;14.680;2023-05-07T03:55:54;57.79;47.31;67.36;;
70454;Laerm;57915;47.174;14.680;2023-05-07T03:56:56;55.08;46.85;65.28;;
70454;Laerm;57915;47.174;14.680;2023-05-07T03:57:58;48.40;46.51;52.98;;
70454;Laerm;57915;47.174;14.680;2023-05-07T03:58:59;48.12;46.76;53.04;;
70454;Laerm;57915;47.174;14.680;2023-05-07T04:00:01;48.17;46.42;57.02;;
70454;Laerm;57915;47.174;14.680;2023-05-07T04:01:03;58.54;46.29;70.57;;
70454;Laerm;57915;47.174;14.680;2023-05-07T04:02:05;55.95;46.73;66.71;;
70454;Laerm;57915;47.174;14.680;2023-05-07T04:03:05;47.98;46.48;58.04;;
70454;Laerm;57915;47.174;14.680;2023-05-07T04:04:07;54.70;46.16;65.76;;
70454;Laerm;57915;47.174;14.680;2023-05-07T04:05:07;51.11;47.06;65.42;;
70454;Laerm;57915;47.174;14.680;2023-05-07T04:06:09;50.91;48.13;58.40;;
70454;Laerm;57915;47.174;14.680;2023-05-07T04:07:10;52.79;48.29;64.38;;
70454;Laerm;57915;47.174;14.680;2023-05-07T04:08:12;53.83;49.02;63.66;;
70454;Laerm;57915;47.174;14.680;2023-05-07T04:09:12;52.22;48.30;63.24;;
70454;Laerm;57915;47.174;14.680;2023-05-07T04:10:14;56.19;48.00;65.46;;
70454;Laerm;57915;47.174;14.680;2023-05-07T04:11:14;51.28;47.58;61.30;;
70454;Laerm;57915;47.174;14.680;2023-05-07T04:12:17;58.04;47.48;69.35;;
70454;Laerm;57915;47.174;14.680;2023-05-07T04:13:18;50.10;46.96;60.88;;
70454;Laerm;57915;47.174;14.680;2023-05-07T04:14:19;48.85;46.46;57.46;;
70454;Laerm;57915;47.174;14.680;2023-05-07T04:15:20;47.91;46.44;53.66;;
70454;Laerm;57915;47.174;14.680;2023-05-07T04:16:22;48.34;46.42;55.60;;
70454;Laerm;57915;47.174;14.680;2023-05-07T04:17:22;48.38;46.32;56.03;;
70454;Laerm;57915;47.174;14.680;2023-05-07T04:18:24;47.66;46.39;49.70;;
70454;Laerm;57915;47.174;14.680;2023-05-07T04:19:27;56.10;46.48;67.81;;
70454;Laerm;57915;47.174;14.680;2023-05-07T04:20:29;48.11;46.55;52.18;;
70454;Laerm;57915;47.174;14.680;2023-05-07T04:21:29;48.41;46.84;51.03;;
70454;Laerm;57915;47.174;14.680;2023-05-07T04:22:31;54.88;46.59;64.90;;
70454;Laerm;57915;47.174;14.680;2023-05-07T04:23:31;52.26;46.34;62.73;;
70454;Laerm;57915;47.174;14.680;2023-05-07T04:24:33;48.04;46.43;53.29;;
70454;Laerm;57915;47.174;14.680;2023-05-07T04:25:33;53.23;46.54;63.24;;
70454;Laerm;57915;47.174;14.680;2023-05-07T04:26:35;48.83;47.16;54.27;;
70454;Laerm;57915;47.174;14.680;2023-05-07T04:27:37;55.44;46.81;68.16;;
70454;Laerm;57915;47.174;14.680;2023-05-07T04:28:38;47.77;46.06;51.05;;
70454;Laerm;57915;47.174;14.680;2023-05-07T04:29:39;48.39;46.94;53.67;;
70454;Laerm;57915;47.174;14.680;2023-05-07T04:30:42;48.61;46.63;55.41;;
70454;Laerm;57915;47.174;14.680;2023-05-07T04:31:43;48.58;46.65;62.47;;
70454;Laerm;57915;47.174;14.680;2023-05-07T04:32:45;49.19;46.63;58.53;;
70454;Laerm;57915;47.174;14.680;2023-05-07T04:33:45;48.83;46.51;62.18;;
70454;Laerm;57915;47.174;14.680;2023-05-07T04:34:47;55.96;46.38;68.73;;
70454;Laerm;57915;47.174;14.680;2023-05-07T04:35:47;51.62;46.61;64.50;;
70454;Laerm;57915;47.174;14.680;2023-05-07T04:36:49;59.68;46.59;72.47;;
70454;Laerm;57915;47.174;14.680;2023-05-07T04:37:49;48.75;46.29;58.48;;
70454;Laerm;57915;47.174;14.680;2023-05-07T04:38:51;59.72;46.40;71.07;;
70454;Laerm;57915;47.174;14.680;2023-05-07T04:39:51;48.90;46.42;55.24;;
70454;Laerm;57915;47.174;14.680;2023-05-07T04:40:53;48.30;46.17;57.07;;
70454;Laerm;57915;47.174;14.680;2023-05-07T04:41:53;49.08;46.34;58.12;;
70454;Laerm;57915;47.174;14.680;2023-05-07T04:42:57;49.05;45.68;58.97;;
70454;Laerm;57915;47.174;14.680;2023-05-07T04:43:57;48.56;45.59;55.33;;
70454;Laerm;57915;47.174;14.680;2023-05-07T04:44:59;54.88;45.76;65.34;;
70454;Laerm;57915;47.174;14.680;2023-05-07T04:46:00;56.81;45.59;66.90;;
70454;Laerm;57915;47.174;14.680;2023-05-07T04:47:01;48.65;44.76;57.98;;
70454;Laerm;57915;47.174;14.680;2023-05-07T04:48:02;48.56;45.46;56.32;;
70454;Laerm;57915;47.174;14.680;2023-05-07T04:49:04;49.06;45.53;61.95;;
70454;Laerm;57915;47.174;14.680;2023-05-07T04:50:06;54.94;46.63;65.21;;
70454;Laerm;57915;47.174;14.680;2023-05-07T04:51:08;50.44;45.49;62.16;;
70454;Laerm;57915;47.174;14.680;2023-05-07T04:52:08;50.74;45.54;62.28;;
70454;Laerm;57915;47.174;14.680;2023-05-07T04:53:10;59.28;44.47;70.64;;
70454;Laerm;57915;47.174;14.680;2023-05-07T04:54:10;50.44;45.29;66.36;;
70454;Laerm;57915;47.174;14.680;2023-05-07T04:55:12;60.87;45.83;72.97;;
70454;Laerm;57915;47.174;14.680;2023-05-07T04:56:12;48.50;44.72;61.77;;
70454;Laerm;57915;47.174;14.680;2023-05-07T04:57:14;61.73;45.34;74.75;;
70454;Laerm;57915;47.174;14.680;2023-05-07T04:58:15;55.83;45.55;68.37;;
70454;Laerm;57915;47.174;14.680;2023-05-07T04:59:17;59.57;46.26;72.71;;
70454;Laerm;57915;47.174;14.680;2023-05-07T05:00:17;50.04;45.14;60.47;;
70454;Laerm;57915;47.174;14.680;2023-05-07T05:01:19;48.72;44.95;62.91;;
70454;Laerm;57915;47.174;14.680;2023-05-07T05:02:20;49.15;43.75;56.00;;
70454;Laerm;57915;47.174;14.680;2023-05-07T05:03:21;55.97;44.24;69.05;;
70454;Laerm;57915;47.174;14.680;2023-05-07T05:04:22;55.31;44.70;67.40;;
70454;Laerm;57915;47.174;14.680;2023-05-07T05:05:24;54.09;44.07;66.47;;
70454;Laerm;57915;47.174;14.680;2023-05-07T05:06:24;60.24;44.34;72.14;;
70454;Laerm;57915;47.174;14.680;2023-05-07T05:07:26;47.14;43.70;61.41;;
70454;Laerm;57915;47.174;14.680;2023-05-07T05:08:26;48.65;44.03;65.85;;
70454;Laerm;57915;47.174;14.680;2023-05-07T05:09:28;50.45;45.01;66.45;;
70454;Laerm;57915;47.174;14.680;2023-05-07T05:10:28;55.54;43.90;66.51;;
70454;Laerm;57915;47.174;14.680;2023-05-07T05:11:30;48.07;42.83;59.87;;
70454;Laerm;57915;47.174;14.680;2023-05-07T05:12:30;48.28;43.59;62.16;;
70454;Laerm;57915;47.174;14.680;2023-05-07T05:13:33;53.61;44.63;64.32;;
70454;Laerm;57915;47.174;14.680;2023-05-07T05:14:34;61.25;44.33;72.61;;
70454;Laerm;57915;47.174;14.680;2023-05-07T05:15:35;51.56;44.25;58.44;;
70454;Laerm;57915;47.174;14.680;2023-05-07T05:16:35;49.58;43.79;64.24;;
70454;Laerm;57915;47.174;14.680;2023-05-07T05:17:37;50.75;45.12;59.18;;
70454;Laerm;57915;47.174;14.680;2023-05-07T05:18:37;47.74;44.50;54.55;;
70454;Laerm;57915;47.174;14.680;2023-05-07T05:19:39;47.58;43.44;64.01;;
70454;Laerm;57915;47.174;14.680;2023-05-07T05:20:40;47.85;43.64;58.51;;
70454;Laerm;57915;47.174;14.680;2023-05-07T05:21:41;57.53;43.47;69.98;;
70454;Laerm;57915;47.174;14.680;2023-05-07T05:22:45;56.81;44.45;67.87;;
70454;Laerm;57915;47.174;14.680;2023-05-07T05:23:46;58.80;42.98;71.97;;
70454;Laerm;57915;47.174;14.680;2023-05-07T05:24:47;49.44;43.87;61.71;;
70454;Laerm;57915;47.174;14.680;2023-05-07T05:25:48;49.71;43.81;57.45;;
70454;Laerm;57915;47.174;14.680;2023-05-07T05:26:49;57.62;44.44;67.53;;
70454;Laerm;57915;47.174;14.680;2023-05-07T05:27:50;59.26;42.86;72.58;;
70454;Laerm;57915;47.174;14.680;2023-05-07T05:28:52;54.61;43.20;66.90;;
70454;Laerm;57915;47.174;14.680;2023-05-07T05:29:54;56.73;43.07;68.45;;
70454;Laerm;57915;47.174;14.680;2023-05-07T05:30:55;58.11;43.78;69.43;;
70454;Laerm;57915;47.174;14.680;2023-05-07T05:31:56;55.13;44.12;66.83;;
70454;Laerm;57915;47.174;14.680;2023-05-07T05:32:56;47.74;42.54;59.47;;
70454;Laerm;57915;47.174;14.680;2023-05-07T05:33:58;58.51;43.59;69.24;;
70454;Laerm;57915;47.174;14.680;2023-05-07T05:34:58;58.39;43.65;69.38;;
70454;Laerm;57915;47.174;14.680;2023-05-07T05:36:00;58.38;43.32;70.01;;
70454;Laerm;57915;47.174;14.680;2023-05-07T05:37:01;59.09;44.13;70.65;;
70454;Laerm;57915;47.174;14.680;2023-05-07T05:38:02;53.70;42.08;64.42;;
70454;Laerm;57915;47.174;14.680;2023-05-07T05:39:03;54.82;42.99;65.12;;